Time;durP1;ratioP1;P1;durP2;ratioP2;P2;SDS_P1;SDS_P2;PMS_P1;PMS_P2;Temp;Humidity;BMP_temperature;BMP_pressure;BME280_temperature;BME280_humidity;BME280_pressure;Samples;Min_cycle;Max_cycle;Signal;HPM_P1;HPM_P2
2021/12/18 00:00:14;;;;;;;62.20;43.00;;;;;;;3.41;81.60;101045.50;5026757;28;20056;-74
2021/12/18 00:02:40;;;;;;;58.70;41.22;;;;;;;3.38;81.81;101054.06;5031422;28;20512;-74
2021/12/18 00:05:06;;;;;;;62.90;40.55;;;;;;;3.09;82.15;101022.69;5030615;28;20029;-74
2021/12/18 00:07:34;;;;;;;63.28;42.58;;;;;;;3.00;82.80;101039.53;5027593;28;20187;-74
2021/12/18 00:10:00;;;;;;;63.75;39.45;;;;;;;3.09;82.96;101042.50;5029145;28;20045;-74
2021/12/18 00:12:26;;;;;;;64.15;44.30;;;;;;;3.25;82.38;101033.63;5028408;28;20053;-75
2021/12/18 00:14:51;;;;;;;58.97;41.13;;;;;;;3.24;82.15;101032.75;5028324;28;20056;-74
2021/12/18 00:17:17;;;;;;;68.95;39.88;;;;;;;3.21;81.95;101026.56;5012225;28;20033;-74
2021/12/18 00:19:43;;;;;;;58.80;40.10;;;;;;;3.12;82.14;101038.34;5029979;28;20437;-74
2021/12/18 00:22:08;;;;;;;52.80;38.28;;;;;;;2.95;82.91;101036.78;5028660;28;20069;-75
2021/12/18 00:24:34;;;;;;;54.15;39.70;;;;;;;3.43;81.97;101068.09;5026513;28;21406;-74
2021/12/18 00:27:00;;;;;;;61.28;39.10;;;;;;;3.36;81.34;101048.78;5031836;28;20052;-75
2021/12/18 00:29:26;;;;;;;62.30;39.88;;;;;;;2.80;82.18;101062.94;5011018;28;20405;-74
2021/12/18 00:31:52;;;;;;;58.75;39.22;;;;;;;2.60;83.96;101075.06;5028093;28;20056;-74
2021/12/18 00:34:18;;;;;;;51.42;38.05;;;;;;;2.93;83.68;101066.94;5010411;28;20063;-74
2021/12/18 00:36:44;;;;;;;55.83;37.63;;;;;;;3.20;82.22;101055.91;5028495;28;20118;-74
2021/12/18 00:39:10;;;;;;;55.40;35.70;;;;;;;3.42;81.61;101088.78;5028132;28;21465;-73
2021/12/18 00:41:48;;;;;;;62.72;36.78;;;;;;;3.44;81.30;101071.56;5026500;28;20064;-73
2021/12/18 00:44:16;;;;;;;48.08;36.05;;;;;;;3.57;81.11;101095.44;5027113;28;20551;-74
2021/12/18 00:46:44;;;;;;;59.00;38.17;;;;;;;3.18;81.50;101076.59;5026712;28;20421;-74
2021/12/18 00:49:13;;;;;;;54.78;38.83;;;;;;;3.40;81.82;101104.28;5027064;28;20033;-74
2021/12/18 00:51:39;;;;;;;47.97;35.92;;;;;;;3.17;81.82;101087.78;5026832;28;20059;-75
2021/12/18 00:54:05;;;;;;;69.03;40.05;;;;;;;3.32;82.03;101105.69;5008572;28;20041;-75
2021/12/18 00:56:31;;;;;;;55.75;37.30;;;;;;;3.08;82.55;101087.41;5025871;28;20029;-74
2021/12/18 00:58:56;;;;;;;59.58;39.78;;;;;;;3.18;82.39;101084.38;5010924;28;20061;-74
2021/12/18 01:01:27;;;;;;;48.20;36.42;;;;;;;2.82;83.16;101099.28;5028957;28;20059;-75
2021/12/18 01:03:54;;;;;;;59.15;38.88;;;;;;;2.83;83.75;101088.97;5029819;28;20045;-74
2021/12/18 01:06:21;;;;;;;60.53;40.20;;;;;;;2.55;84.45;101084.31;5025389;28;20072;-75
2021/12/18 01:08:48;;;;;;;54.17;38.85;;;;;;;2.46;85.16;101087.41;5029048;28;20052;-74
2021/12/18 01:11:31;;;;;;;72.93;41.97;;;;;;;2.40;85.81;101084.56;5027584;28;20025;-74
2021/12/18 01:16:39;;;;;;;68.30;46.95;;;;;;;2.19;87.81;101106.91;5022567;28;20048;-75
2021/12/18 01:24:32;;;;;;;75.45;44.92;;;;;;;1.77;89.19;101088.59;5028059;28;20134;-74
2021/12/18 01:26:58;;;;;;;80.20;45.45;;;;;;;1.61;89.50;101071.47;5013579;28;20881;-74
2021/12/18 01:29:24;;;;;;;74.10;47.60;;;;;;;1.94;89.32;101102.31;5029483;28;20647;-74
2021/12/18 01:34:21;;;;;;;61.28;41.22;;;;;;;1.94;88.06;101069.53;5022630;27;20627;-75
2021/12/18 01:36:47;;;;;;;65.07;44.28;;;;;;;1.80;88.17;101088.72;4997176;28;20042;-74
2021/12/18 01:39:12;;;;;;;67.25;40.17;;;;;;;1.84;88.71;101117.41;4997763;28;20171;-74
2021/12/18 01:42:02;;;;;;;65.55;41.85;;;;;;;1.22;89.16;101068.78;4998171;28;20041;-75
2021/12/18 01:52:37;;;;;;;63.92;43.08;;;;;;;1.02;90.42;101119.50;4997926;28;20158;-74
2021/12/18 01:55:03;;;;;;;72.88;44.65;;;;;;;1.43;90.69;101111.19;5001583;28;20098;-74
2021/12/18 01:57:29;;;;;;;60.65;41.38;;;;;;;1.48;89.99;101083.84;4999429;28;20045;-74
2021/12/18 01:59:54;;;;;;;57.10;40.72;;;;;;;2.12;88.73;101092.81;4998580;28;20473;-73
2021/12/18 02:04:20;;;;;;;56.00;37.88;;;;;;;2.37;86.12;101084.44;5040751;27;21260;-75
2021/12/18 02:06:45;;;;;;;45.25;33.72;;;;;;;2.66;84.86;101080.50;5023028;28;20058;-75
2021/12/18 02:09:11;;;;;;;46.05;33.65;;;;;;;2.65;83.57;101055.41;5026248;28;20560;-74
2021/12/18 02:11:39;;;;;;;42.95;32.38;;;;;;;2.76;83.05;101081.75;5023113;28;20068;-75
2021/12/18 02:22:05;;;;;;;42.33;29.13;;;;;;;2.45;82.55;101077.88;5024771;28;20082;-74
2021/12/18 02:24:32;;;;;;;37.50;28.15;;;;;;;2.39;82.45;101071.53;5022115;28;20069;-74
2021/12/18 02:26:58;;;;;;;33.67;27.55;;;;;;;2.26;82.69;101073.59;5024154;28;20115;-74
2021/12/18 02:29:25;;;;;;;35.03;25.77;;;;;;;2.67;82.29;101107.28;5027285;28;20041;-74
2021/12/18 02:31:50;;;;;;;40.10;27.23;;;;;;;2.53;82.16;101081.69;5035719;28;20577;-75
2021/12/18 02:34:23;;;;;;;40.45;28.45;;;;;;;2.42;82.30;101087.22;5033050;28;20064;-74
2021/12/18 02:36:49;;;;;;;40.07;26.57;;;;;;;2.33;82.61;101091.16;5022449;28;20045;-74
2021/12/18 02:43:34;;;;;;;30.15;23.23;;;;;;;2.13;83.10;101096.25;4996146;28;20053;-75
2021/12/18 02:46:00;;;;;;;34.90;25.92;;;;;;;2.59;82.10;101122.50;5010617;28;20050;-75
2021/12/18 02:48:29;;;;;;;27.05;22.98;;;;;;;2.67;81.77;101125.41;5012583;28;20048;-75
2021/12/18 02:50:59;;;;;;;31.20;21.83;;;;;;;2.39;80.97;101090.56;5012081;28;20509;-75
2021/12/18 02:53:25;;;;;;;37.35;24.35;;;;;;;2.50;80.97;101099.66;5012199;28;20029;-75
2021/12/18 02:55:56;;;;;;;27.25;20.65;;;;;;;2.64;80.75;101121.00;5012052;28;20046;-75
2021/12/18 02:58:22;;;;;;;33.65;21.90;;;;;;;2.58;80.89;101105.19;5012006;28;20546;-74
2021/12/18 03:00:47;;;;;;;32.72;23.15;;;;;;;2.61;80.88;101122.56;5012570;28;20049;-75
2021/12/18 03:03:15;;;;;;;27.20;20.27;;;;;;;2.47;80.93;101125.44;5013171;28;20048;-75
2021/12/18 03:05:49;;;;;;;32.53;21.77;;;;;;;2.43;80.92;101107.09;5029375;28;20033;-75
2021/12/18 03:08:22;;;;;;;24.85;17.88;;;;;;;2.58;80.57;101112.97;5013146;28;20039;-75
2021/12/18 03:24:33;;;;;;;25.42;18.65;;;;;;;2.49;81.53;101138.47;5011937;28;20493;-73
2021/12/18 03:26:54;;;;;;;30.38;21.95;;;;;;;2.41;81.62;101145.91;5011618;28;20042;-73
2021/12/18 03:29:20;;;;;;;36.03;22.30;;;;;;;2.26;81.86;101122.78;5013712;28;20094;-73
2021/12/18 03:31:45;;;;;;;24.30;21.35;;;;;;;2.45;81.32;101137.44;5012585;28;20110;-73
2021/12/18 03:34:11;;;;;;;27.60;20.02;;;;;;;2.65;81.06;101138.31;5012739;28;20041;-74
2021/12/18 03:36:36;;;;;;;26.02;20.38;;;;;;;2.70;80.60;101129.03;5009578;28;20405;-74
2021/12/18 03:39:03;;;;;;;27.00;19.38;;;;;;;2.88;80.36;101141.91;5011319;28;20075;-74
2021/12/18 03:41:29;;;;;;;27.83;21.83;;;;;;;2.61;80.47;101132.94;5011207;28;20176;-74
2021/12/18 03:43:55;;;;;;;41.88;24.45;;;;;;;2.27;80.73;101163.41;4985148;28;20113;-74
2021/12/18 03:46:20;;;;;;;32.05;23.15;;;;;;;2.05;81.52;101166.69;5010732;28;20056;-73
2021/12/18 03:48:46;;;;;;;28.20;20.63;;;;;;;2.31;81.49;101167.88;5011988;28;20149;-74
2021/12/18 03:51:11;;;;;;;27.95;21.38;;;;;;;2.01;81.74;101150.94;5003225;28;20053;-74
2021/12/18 03:53:37;;;;;;;25.85;21.05;;;;;;;1.95;82.12;101140.34;4998343;28;20030;-74
2021/12/18 03:56:03;;;;;;;25.55;20.08;;;;;;;2.04;81.49;101153.69;5000116;28;20041;-75
2021/12/18 03:58:29;;;;;;;31.80;21.38;;;;;;;2.05;82.18;101173.56;4997327;28;20057;-74
2021/12/18 04:00:55;;;;;;;34.22;21.80;;;;;;;2.05;81.88;101164.09;4998819;28;20046;-75
2021/12/18 04:03:21;;;;;;;24.90;19.95;;;;;;;1.97;81.94;101168.06;4993847;28;20858;-72
2021/12/18 04:05:46;;;;;;;27.33;21.67;;;;;;;1.98;81.81;101166.34;4988723;28;20129;-74
2021/12/18 04:08:12;;;;;;;47.22;22.50;;;;;;;1.78;81.97;101167.97;5000218;28;20033;-74
2021/12/18 04:10:40;;;;;;;29.05;23.30;;;;;;;1.62;82.33;101169.84;4989532;28;20046;-72
2021/12/18 04:13:07;;;;;;;30.58;21.75;;;;;;;1.66;82.39;101163.09;4996350;28;20061;-74
2021/12/18 04:15:33;;;;;;;29.38;22.20;;;;;;;1.96;82.44;101173.16;4997970;28;20141;-74
2021/12/18 04:17:58;;;;;;;25.48;21.65;;;;;;;2.23;82.21;101186.50;4996598;28;20042;-73
2021/12/18 04:20:24;;;;;;;35.08;22.73;;;;;;;1.76;83.73;101192.91;4998879;28;20026;-74
2021/12/18 04:22:50;;;;;;;26.45;19.92;;;;;;;2.10;83.01;101180.72;4998412;28;20046;-73
2021/12/18 04:25:16;;;;;;;26.30;20.17;;;;;;;1.96;83.03;101175.72;4999974;28;20038;-73
2021/12/18 04:27:43;;;;;;;28.48;21.05;;;;;;;2.18;83.30;101193.13;4998373;28;20046;-73
2021/12/18 04:30:09;;;;;;;24.50;19.63;;;;;;;2.15;82.82;101177.47;4998741;28;20509;-73
2021/12/18 04:32:34;;;;;;;33.55;22.58;;;;;;;2.17;82.76;101181.91;4997274;28;20375;-73
2021/12/18 04:35:00;;;;;;;44.30;20.85;;;;;;;2.32;82.62;101187.81;4999166;28;20033;-73
2021/12/18 04:37:25;;;;;;;32.10;19.67;;;;;;;2.33;82.36;101183.50;4997050;28;20056;-73
2021/12/18 04:39:52;;;;;;;33.42;21.02;;;;;;;2.65;81.66;101222.94;4993467;28;20085;-73
2021/12/18 04:42:18;;;;;;;30.05;21.13;;;;;;;2.32;82.49;101192.97;4995019;28;20044;-73
2021/12/18 04:44:44;;;;;;;32.58;21.58;;;;;;;2.18;82.96;101216.44;4997480;28;20397;-73
2021/12/18 04:47:10;;;;;;;32.25;22.35;;;;;;;1.86;83.75;101221.88;4995609;28;20040;-73
2021/12/18 04:49:35;;;;;;;27.05;22.13;;;;;;;1.99;83.94;101225.94;4996654;28;20050;-73
2021/12/18 04:52:02;;;;;;;27.35;20.50;;;;;;;1.98;83.49;101218.09;4998436;28;20115;-74
2021/12/18 04:54:28;;;;;;;25.08;19.95;;;;;;;2.33;82.59;101240.47;4995953;28;20425;-74
2021/12/18 04:56:53;;;;;;;23.88;20.98;;;;;;;2.19;82.34;101234.66;4988485;28;20046;-72
2021/12/18 04:59:19;;;;;;;25.77;18.75;;;;;;;2.45;82.04;101248.81;4998669;28;20067;-74
2021/12/18 05:01:44;;;;;;;25.55;21.25;;;;;;;2.35;82.23;101228.50;4996871;28;20501;-73
2021/12/18 05:04:11;;;;;;;27.17;19.52;;;;;;;2.47;82.02;101241.13;4996986;28;20054;-74
2021/12/18 05:06:41;;;;;;;33.40;21.00;;;;;;;2.37;83.25;101259.66;4980558;28;20064;-73
2021/12/18 05:09:07;;;;;;;32.15;22.83;;;;;;;2.36;83.72;101268.22;4997270;28;20042;-73
2021/12/18 05:11:32;;;;;;;26.45;20.98;;;;;;;2.57;83.32;101261.44;4997682;28;20543;-73
2021/12/18 05:13:58;;;;;;;30.92;22.42;;;;;;;2.81;82.36;101271.13;4997755;28;20026;-73
2021/12/18 05:16:23;;;;;;;25.52;19.00;;;;;;;2.82;81.78;101260.84;4997168;28;20129;-73
2021/12/18 05:18:49;;;;;;;28.48;22.70;;;;;;;2.60;81.84;101250.31;4996449;28;20050;-74
2021/12/18 05:21:14;;;;;;;29.10;22.35;;;;;;;2.43;82.81;101255.63;4996835;28;20481;-74
2021/12/18 05:23:40;;;;;;;29.45;19.02;;;;;;;2.52;82.91;101268.09;4995524;28;20429;-75
2021/12/18 05:26:06;;;;;;;28.27;21.88;;;;;;;2.57;82.66;101283.88;4997488;28;20212;-74
2021/12/18 05:28:31;;;;;;;25.70;21.13;;;;;;;2.59;82.73;101253.75;4997398;28;20038;-74
2021/12/18 05:30:57;;;;;;;31.73;21.70;;;;;;;2.74;82.83;101304.56;4996589;28;20132;-74
2021/12/18 05:33:22;;;;;;;28.38;20.55;;;;;;;2.68;82.48;101300.81;4996500;28;22641;-74
2021/12/18 05:35:48;;;;;;;31.10;20.95;;;;;;;2.85;82.22;101283.44;4993711;28;20297;-73
2021/12/18 05:38:13;;;;;;;29.38;20.65;;;;;;;3.03;81.38;101281.66;4996526;28;20096;-74
2021/12/18 05:40:39;;;;;;;41.78;24.10;;;;;;;3.26;81.12;101279.22;4996614;28;20038;-74
2021/12/18 05:43:07;;;;;;;37.38;20.67;;;;;;;2.95;81.22;101286.50;4996497;28;20085;-74
2021/12/18 05:45:33;;;;;;;25.08;21.08;;;;;;;3.07;81.10;101286.19;4995326;28;20057;-74
2021/12/18 05:47:59;;;;;;;34.40;21.35;;;;;;;2.88;81.58;101280.97;4995108;28;20500;-74
2021/12/18 05:50:27;;;;;;;42.55;26.88;;;;;;;2.76;81.89;101296.84;4997949;28;20034;-74
2021/12/18 05:52:54;;;;;;;47.05;27.73;;;;;;;2.59;83.01;101302.97;4997873;28;20111;-73
2021/12/18 05:55:23;;;;;;;41.05;24.90;;;;;;;2.89;82.46;101327.69;4996392;28;20942;-74
2021/12/18 05:57:49;;;;;;;43.47;27.50;;;;;;;2.66;82.71;101337.00;4995448;28;20049;-73
2021/12/18 06:00:15;;;;;;;48.42;25.70;;;;;;;2.63;82.62;101326.50;4993921;28;20095;-73
2021/12/18 06:02:41;;;;;;;39.55;26.80;;;;;;;3.07;81.82;101345.81;4996339;28;20147;-74
2021/12/18 06:05:07;;;;;;;36.13;22.63;;;;;;;2.81;80.34;101343.69;4995413;28;20042;-74
2021/12/18 06:07:56;;;;;;;23.02;16.77;;;;;;;2.81;79.07;101359.25;4996430;28;20359;-75
2021/12/18 06:10:25;;;;;;;34.65;18.42;;;;;;;2.93;77.93;101354.66;4980407;28;20050;-74
2021/12/18 06:12:50;;;;;;;23.33;15.25;;;;;;;2.85;77.09;101353.41;4996028;28;20121;-75
2021/12/18 06:15:16;;;;;;;26.73;19.88;;;;;;;2.40;78.37;101366.84;4996433;28;20575;-75
2021/12/18 06:17:42;;;;;;;26.73;18.80;;;;;;;2.47;78.75;101368.91;4996006;28;20041;-72
2021/12/18 06:20:09;;;;;;;23.98;18.63;;;;;;;2.25;79.29;101372.19;4996626;28;20037;-74
2021/12/18 06:22:35;;;;;;;23.38;15.45;;;;;;;2.33;78.82;101373.44;4996873;28;20041;-73
2021/12/18 06:25:00;;;;;;;38.25;19.73;;;;;;;2.63;78.31;101372.25;4994117;28;20557;-73
2021/12/18 06:27:26;;;;;;;25.55;15.82;;;;;;;2.82;76.73;101374.00;4996335;28;20582;-74
2021/12/18 06:29:51;;;;;;;21.08;15.38;;;;;;;2.90;77.63;101347.63;4996536;28;20469;-74
2021/12/18 06:32:17;;;;;;;20.95;14.95;;;;;;;2.49;76.63;101379.38;4997303;28;20522;-74
2021/12/18 06:34:42;;;;;;;19.63;16.02;;;;;;;2.45;77.51;101386.09;4995178;28;20054;-74
2021/12/18 06:37:08;;;;;;;25.95;16.95;;;;;;;2.32;79.34;101370.78;4987832;28;20525;-73
2021/12/18 06:39:33;;;;;;;21.38;13.13;;;;;;;1.97;78.98;101380.28;4989903;28;20053;-74
2021/12/18 06:41:59;;;;;;;19.63;14.55;;;;;;;2.37;78.90;101366.72;4995593;28;20717;-74
2021/12/18 06:44:24;;;;;;;24.83;15.80;;;;;;;2.46;78.55;101372.34;4996859;28;20042;-74
2021/12/18 06:46:50;;;;;;;20.95;16.95;;;;;;;2.28;79.55;101395.63;4994256;28;20490;-74
2021/12/18 06:49:17;;;;;;;17.70;14.13;;;;;;;1.96;80.33;101401.78;4996164;28;20045;-74
2021/12/18 06:51:42;;;;;;;20.73;14.20;;;;;;;2.27;79.48;101404.22;4994631;28;20535;-74
2021/12/18 06:54:08;;;;;;;20.60;13.55;;;;;;;1.95;79.61;101381.00;4994808;28;20050;-74
2021/12/18 06:56:34;;;;;;;17.70;13.35;;;;;;;1.94;80.41;101381.81;4995018;28;21263;-74
2021/12/18 06:58:59;;;;;;;21.92;13.95;;;;;;;1.92;80.10;101383.41;4994622;28;20038;-75
2021/12/18 07:01:25;;;;;;;23.25;14.88;;;;;;;2.16;79.75;101379.50;4995264;28;20092;-74
2021/12/18 07:03:50;;;;;;;19.60;16.58;;;;;;;2.56;79.04;101402.16;4994566;28;20037;-75
2021/12/18 07:06:16;;;;;;;30.38;21.85;;;;;;;2.13;80.32;101386.19;4995494;28;20053;-75
2021/12/18 07:08:41;;;;;;;30.42;19.08;;;;;;;1.89;81.19;101390.22;4996535;28;20064;-73
2021/12/18 07:11:07;;;;;;;33.15;20.63;;;;;;;2.18;80.32;101395.06;4996132;28;20045;-75
2021/12/18 07:13:32;;;;;;;29.52;18.52;;;;;;;2.02;81.11;101406.38;4995345;28;20050;-74
2021/12/18 07:15:59;;;;;;;23.10;16.33;;;;;;;2.27;80.36;101403.31;4994632;28;20046;-72
2021/12/18 07:18:25;;;;;;;18.42;14.43;;;;;;;2.12;81.07;101424.16;4995863;28;23339;-72
2021/12/18 07:20:52;;;;;;;23.48;16.95;;;;;;;2.40;80.88;101410.00;4995640;28;20533;-74
2021/12/18 07:23:18;;;;;;;21.88;15.25;;;;;;;2.95;78.90;101418.72;4996905;28;20034;-74
2021/12/18 07:25:44;;;;;;;22.92;16.50;;;;;;;3.14;77.43;101409.22;4993942;28;20057;-74
2021/12/18 07:28:10;;;;;;;22.20;16.40;;;;;;;3.17;77.51;101443.06;4999104;28;20090;-74
2021/12/18 07:30:35;;;;;;;26.17;18.38;;;;;;;3.12;77.87;101422.09;4995311;28;20058;-72
2021/12/18 07:33:01;;;;;;;23.92;17.92;;;;;;;3.43;77.84;101428.69;4999059;28;20474;-74
2021/12/18 07:35:27;;;;;;;28.67;20.85;;;;;;;3.17;77.82;101411.94;4997435;28;20605;-72
2021/12/18 07:40:24;;;;;;;33.92;21.35;;;;;;;3.37;77.01;101433.56;5036488;27;20629;-73
2021/12/18 07:42:50;;;;;;;31.25;23.90;;;;;;;3.24;77.77;101436.44;5007482;28;20444;-73
2021/12/18 07:45:16;;;;;;;31.45;21.60;;;;;;;3.48;77.59;101440.16;5042159;28;20053;-73
2021/12/18 07:47:41;;;;;;;34.20;22.35;;;;;;;3.29;77.42;101432.34;5037032;28;20034;-73
2021/12/18 07:50:07;;;;;;;29.77;24.05;;;;;;;3.33;77.81;101436.88;5003419;28;20514;-73
2021/12/18 07:52:33;;;;;;;32.60;23.45;;;;;;;3.46;77.39;101436.59;5002356;28;20045;-72
2021/12/18 07:54:58;;;;;;;35.50;23.35;;;;;;;3.61;76.88;101452.00;5006105;28;20077;-74
2021/12/18 07:57:24;;;;;;;30.02;24.23;;;;;;;3.71;76.88;101443.78;5005622;28;21333;-73
2021/12/18 08:02:39;;;;;;;30.08;23.63;;;;;;;4.09;76.71;101457.53;5109720;27;20635;-72
2021/12/18 08:05:06;;;;;;;33.30;25.73;;;;;;;3.80;76.83;101445.91;5098345;28;20115;-71
2021/12/18 08:07:31;;;;;;;34.00;25.67;;;;;;;4.14;76.37;101471.59;5095323;27;20050;-71
2021/12/18 08:09:57;;;;;;;38.58;28.05;;;;;;;3.67;76.88;101460.03;5096121;28;20040;-71
2021/12/18 08:12:22;;;;;;;33.90;28.63;;;;;;;3.92;76.20;101472.41;5079518;28;21989;-71
2021/12/18 08:14:48;;;;;;;33.47;27.55;;;;;;;4.23;76.20;101500.59;5083253;27;20573;-72
2021/12/18 08:17:13;;;;;;;33.40;25.38;;;;;;;3.93;75.76;101478.47;5099396;27;20483;-72
2021/12/18 08:19:40;;;;;;;31.05;25.13;;;;;;;4.02;75.71;101494.47;5097214;27;21430;-72
2021/12/18 08:22:06;;;;;;;38.80;27.40;;;;;;;4.09;75.53;101470.53;5097280;27;20054;-73
2021/12/18 08:24:32;;;;;;;33.75;24.73;;;;;;;4.11;74.97;101468.88;5096862;28;20047;-72
2021/12/18 08:26:58;;;;;;;36.58;25.20;;;;;;;4.34;73.99;101506.25;5096932;28;20054;-72
2021/12/18 08:29:23;;;;;;;33.42;27.10;;;;;;;4.17;74.34;101489.94;5098182;28;20036;-75
2021/12/18 08:31:51;;;;;;;44.50;27.52;;;;;;;4.23;75.19;101491.91;5091430;28;20103;-72
2021/12/18 08:34:19;;;;;;;38.95;27.60;;;;;;;4.33;73.91;101469.81;5097898;28;20043;-72
2021/12/18 08:36:45;;;;;;;34.85;24.30;;;;;;;4.26;74.84;101486.88;5091498;28;20103;-72
2021/12/18 08:39:10;;;;;;;42.53;24.40;;;;;;;4.47;74.14;101510.25;5096113;27;20519;-72
2021/12/18 08:41:38;;;;;;;33.88;24.65;;;;;;;4.15;73.80;101482.91;5093173;27;20689;-74
2021/12/18 08:44:04;;;;;;;29.70;21.95;;;;;;;4.00;73.54;101476.22;5093670;28;20110;-74
2021/12/18 08:46:29;;;;;;;30.63;23.45;;;;;;;4.40;72.83;101487.44;5095842;28;20052;-72
2021/12/18 08:48:55;;;;;;;27.95;22.75;;;;;;;4.26;73.36;101501.53;5094671;27;21242;-74
2021/12/18 08:51:20;;;;;;;32.42;25.85;;;;;;;3.65;76.46;101478.94;5099801;27;20047;-74
2021/12/18 08:53:46;;;;;;;43.60;24.17;;;;;;;3.77;77.18;101497.69;5099431;27;20100;-73
2021/12/18 08:56:12;;;;;;;30.83;23.73;;;;;;;3.77;77.04;101456.16;5094038;28;20466;-74
2021/12/18 08:58:37;;;;;;;45.40;25.13;;;;;;;4.01;76.47;101472.81;5092123;28;20128;-74
2021/12/18 09:01:04;;;;;;;29.20;23.40;;;;;;;4.03;76.15;101467.69;5093777;27;20672;-71
2021/12/18 09:03:30;;;;;;;37.83;26.98;;;;;;;4.48;74.23;101495.56;5095878;28;20102;-72
2021/12/18 09:05:56;;;;;;;36.47;26.48;;;;;;;4.73;73.55;101487.97;5089927;27;20536;-73
2021/12/18 09:08:22;;;;;;;31.33;23.00;;;;;;;4.49;72.08;101500.81;5092406;28;20793;-73
2021/12/18 09:10:49;;;;;;;29.33;22.65;;;;;;;4.12;74.24;101501.84;5094915;27;20040;-74
2021/12/18 09:13:15;;;;;;;28.70;20.35;;;;;;;4.55;72.21;101497.59;5079536;28;20043;-74
2021/12/18 09:15:40;;;;;;;29.08;20.35;;;;;;;4.64;70.75;101490.19;5077368;28;20472;-76
2021/12/18 09:18:07;;;;;;;33.85;21.80;;;;;;;4.86;71.71;101490.22;5075208;28;20040;-74
2021/12/18 09:20:33;;;;;;;24.42;19.65;;;;;;;5.03;70.55;101493.53;5075338;28;20035;-77
2021/12/18 09:23:00;;;;;;;22.88;16.90;;;;;;;4.36;71.63;101483.81;5082513;28;20063;-77
2021/12/18 09:25:26;;;;;;;24.60;20.30;;;;;;;4.93;71.91;101511.28;5079275;28;21387;-74
2021/12/18 09:27:56;;;;;;;30.77;19.45;;;;;;;5.26;70.79;101520.41;5076280;28;20044;-75
2021/12/18 09:30:23;;;;;;;31.40;21.27;;;;;;;5.11;71.60;101526.75;5076733;28;20757;-75
2021/12/18 09:32:49;;;;;;;33.05;14.52;;;;;;;4.49;72.09;101502.53;5077381;28;20036;-75
2021/12/18 09:35:15;;;;;;;23.15;17.98;;;;;;;4.55;69.34;101485.47;5081656;28;20028;-75
2021/12/18 09:37:41;;;;;;;27.70;16.88;;;;;;;4.56;71.10;101500.25;5079578;28;20135;-73
2021/12/18 09:40:09;;;;;;;19.55;15.10;;;;;;;4.41;70.57;101507.41;5071502;28;20064;-77
2021/12/18 09:42:36;;;;;;;18.80;15.02;;;;;;;4.55;69.02;101502.78;5051864;28;20048;-74
2021/12/18 09:45:03;;;;;;;26.05;17.67;;;;;;;4.46;68.97;101499.81;5063908;28;20075;-73
2021/12/18 09:47:29;;;;;;;24.85;17.65;;;;;;;4.92;68.25;101491.31;5051729;28;20045;-73
2021/12/18 09:49:56;;;;;;;26.38;16.85;;;;;;;4.48;69.39;101490.38;5058991;28;20040;-74
2021/12/18 09:52:22;;;;;;;21.60;17.00;;;;;;;4.95;68.57;101533.03;5058659;28;20051;-73
2021/12/18 09:54:47;;;;;;;30.15;21.17;;;;;;;4.67;71.26;101510.22;5054966;28;20048;-75
2021/12/18 09:57:13;;;;;;;19.23;15.23;;;;;;;4.84;69.29;101519.59;5054793;28;20511;-75
2021/12/18 09:59:38;;;;;;;21.02;14.98;;;;;;;4.27;70.54;101524.13;5055106;28;20442;-75
2021/12/18 10:02:05;;;;;;;12.98;9.77;;;;;;;4.31;68.01;101524.31;5054256;28;20052;-75
2021/12/18 10:04:34;;;;;;;16.73;10.13;;;;;;;4.64;65.95;101497.97;5052195;28;20109;-75
2021/12/18 10:07:33;;;;;;;19.15;14.32;;;;;;;4.22;69.18;101495.34;5054803;28;20044;-75
2021/12/18 10:10:00;;;;;;;21.85;17.50;;;;;;;4.49;69.17;101487.81;5027216;28;20079;-74
2021/12/18 10:12:30;;;;;;;14.07;10.98;;;;;;;4.06;68.90;101498.09;5054910;28;20041;-75
2021/12/18 10:15:02;;;;;;;14.25;10.32;;;;;;;4.29;67.62;101491.31;5055478;28;20048;-73
2021/12/18 10:17:31;;;;;;;17.10;10.88;;;;;;;4.55;68.03;101489.81;5068852;28;20136;-75
2021/12/18 10:20:18;;;;;;;16.10;8.95;;;;;;;4.17;66.86;101481.28;5057741;28;20028;-74
2021/12/18 10:22:46;;;;;;;15.93;10.35;;;;;;;4.54;65.36;101483.72;5053674;28;20145;-75
2021/12/18 10:25:14;;;;;;;13.35;9.77;;;;;;;4.61;67.63;101497.84;5054542;28;20063;-76
2021/12/18 10:27:42;;;;;;;15.25;10.98;;;;;;;4.37;67.46;101513.28;5038388;28;20052;-75
2021/12/18 10:32:28;;;;;;;15.00;10.43;;;;;;;4.41;66.40;101492.69;5130553;27;20620;-75
2021/12/18 10:34:56;;;;;;;14.65;10.90;;;;;;;4.36;66.63;101499.41;5099238;28;20496;-76
2021/12/18 10:37:27;;;;;;;17.60;10.45;;;;;;;4.55;66.72;101498.47;5069260;28;20155;-76
2021/12/18 10:39:53;;;;;;;16.58;10.00;;;;;;;4.40;65.21;101471.84;5071277;28;20052;-75
2021/12/18 10:42:42;;;;;;;18.23;11.45;;;;;;;4.98;64.66;101468.13;5069207;28;20050;-76
2021/12/18 10:45:14;;;;;;;13.02;9.20;;;;;;;4.54;63.72;101477.63;5098447;28;20513;-75
2021/12/18 10:47:49;;;;;;;13.18;9.10;;;;;;;4.59;64.15;101470.91;5113962;28;20132;-75
2021/12/18 10:50:35;;;;;;;16.35;8.77;;;;;;;4.46;64.12;101472.09;5113484;27;21016;-75
2021/12/18 10:53:11;;;;;;;9.32;8.10;;;;;;;4.41;64.05;101463.22;5113414;28;20047;-75
2021/12/18 10:55:42;;;;;;;12.00;8.43;;;;;;;4.33;64.76;101469.81;5093026;28;20056;-75
2021/12/18 10:58:13;;;;;;;22.40;11.02;;;;;;;4.80;64.36;101471.78;5092432;28;20059;-74
2021/12/18 11:00:57;;;;;;;13.25;8.85;;;;;;;5.06;63.74;101491.03;5093012;28;20043;-75
2021/12/18 11:03:23;;;;;;;11.05;7.80;;;;;;;5.32;60.76;101472.94;5109820;27;20069;-75
2021/12/18 11:06:06;;;;;;;13.35;10.57;;;;;;;5.99;63.05;101466.75;5111424;28;20081;-77
2021/12/18 11:09:00;;;;;;;16.08;8.02;;;;;;;5.22;63.29;101483.81;5112671;28;20033;-77
2021/12/18 11:14:37;;;;;;;11.70;6.22;;;;;;;5.14;60.92;101490.44;5111221;27;20820;-75
2021/12/18 11:17:05;;;;;;;10.55;6.50;;;;;;;4.91;59.54;101485.19;5113085;28;20032;-74
2021/12/18 11:19:33;;;;;;;7.53;5.00;;;;;;;4.59;60.45;101492.59;5096113;27;20047;-75
2021/12/18 11:22:02;;;;;;;10.27;5.82;;;;;;;4.67;59.38;101466.03;5094663;28;20564;-76
2021/12/18 11:24:36;;;;;;;12.18;8.50;;;;;;;5.21;59.12;101471.66;5111206;28;20086;-76
2021/12/18 11:27:04;;;;;;;;;;;;;;;5.05;60.39;101488.34;5111259;28;20044;-75
2021/12/18 11:29:47;;;;;;;5.57;3.08;;;;;;;4.96;59.58;101490.59;5111124;28;19922;-78
2021/12/18 11:32:19;;;;;;;9.82;5.63;;;;;;;4.46;58.63;101471.22;5110608;28;20503;-78
2021/12/18 11:34:47;;;;;;;12.88;4.35;;;;;;;4.61;59.66;101492.63;5111288;28;20039;-77
2021/12/18 11:37:15;;;;;;;6.85;3.30;;;;;;;4.43;59.64;101483.25;5090330;28;20063;-77
2021/12/18 11:39:44;;;;;;;26.23;18.33;;;;;;;4.40;60.97;101479.63;5094135;27;20040;-76
2021/12/18 11:42:11;;;;;;;7.90;5.18;;;;;;;4.42;60.95;101489.28;5106077;28;20044;-76
2021/12/18 11:44:38;;;;;;;10.82;7.70;;;;;;;4.62;60.03;101479.72;5097486;28;20118;-76
2021/12/18 11:47:22;;;;;;;9.70;7.05;;;;;;;4.96;59.01;101503.59;5098323;28;20036;-76
2021/12/18 11:49:47;;;;;;;;;;;;;;;4.28;59.32;101494.69;5099816;28;20048;-74
2021/12/18 11:52:13;;;;;;;7.30;2.78;;;;;;;4.18;59.95;101511.59;5098510;28;20295;-77
2021/12/18 11:54:54;;;;;;;7.13;3.47;;;;;;;4.22;59.36;101492.75;5093569;28;20068;-76
2021/12/18 11:57:45;;;;;;;8.40;4.97;;;;;;;4.60;59.43;101486.56;5095345;28;20047;-77
2021/12/18 12:00:22;;;;;;;10.23;5.78;;;;;;;4.65;56.89;101484.16;5097654;28;20050;-76
2021/12/18 12:02:54;;;;;;;5.70;3.03;;;;;;;4.95;56.14;101500.13;5096554;28;20061;-77
2021/12/18 12:05:39;;;;;;;7.75;3.78;;;;;;;4.96;55.58;101483.66;5080851;28;20039;-77
2021/12/18 12:08:17;;;;;;;10.65;4.18;;;;;;;4.58;57.19;101479.53;5096725;28;20094;-73
2021/12/18 12:11:16;;;;;;;4.78;2.67;;;;;;;4.34;58.69;101479.38;5093352;28;20048;-74
2021/12/18 12:14:06;;;;;;;18.08;12.65;;;;;;;4.64;59.40;101485.00;5089914;28;20070;-73
2021/12/18 12:16:46;;;;;;;8.00;4.60;;;;;;;4.31;59.07;101476.63;5077240;28;20081;-72
2021/12/18 12:19:22;;;;;;;11.85;7.63;;;;;;;4.52;59.18;101482.78;5095436;28;20078;-72